Time;durP1;ratioP1;P1;durP2;ratioP2;P2;SDS_P1;SDS_P2;PMS_P1;PMS_P2;Temp;Humidity;BMP_temperature;BMP_pressure;BME280_temperature;BME280_humidity;BME280_pressure;Samples;Min_cycle;Max_cycle;Signal;HPM_P1;HPM_P2
2023/10/28 00:02:20;;;;;;;;;;;;;;;;;;5034928;28;19928;-72
2023/10/28 00:04:46;;;;;;;;;;;;;;;;;;5037820;28;19920;-72
2023/10/28 00:07:12;;;;;;;;;;;;;;;;;;5070560;28;19927;-72
2023/10/28 00:09:40;;;;;;;;;;;;;;;;;;5054371;28;20348;-72
2023/10/28 00:12:08;;;;;;;;;;;;;;;;;;5050213;28;19931;-73
2023/10/28 00:14:34;;;;;;;;;;;;;;;;;;5050957;28;19932;-72
2023/10/28 00:17:00;;;;;;;;;;;;;;;;;;5020590;28;19928;-72
2023/10/28 00:19:28;;;;;;;;;;;;;;;;;;5039588;28;20582;-72
2023/10/28 00:21:54;;;;;;;;;;;;;;;;;;5064364;28;19921;-73
2023/10/28 00:24:21;;;;;;;;;;;;;;;;;;5066930;28;19928;-72
2023/10/28 00:26:47;;;;;;;;;;;;;;;;;;5062449;28;19925;-72
2023/10/28 00:29:13;;;;;;;;;;;;;;;;;;5041400;28;19928;-72
2023/10/28 00:31:39;;;;;;;;;;;;;;;;;;5048692;28;19929;-72
2023/10/28 00:34:05;;;;;;;;;;;;;;;;;;5048936;28;20255;-72
2023/10/28 00:36:31;;;;;;;;;;;;;;;;;;5034992;28;19940;-72
2023/10/28 00:38:56;;;;;;;;;;;;;;;;;;5026852;28;19920;-72
2023/10/28 00:41:22;;;;;;;;;;;;;;;;;;5049568;28;19931;-72
2023/10/28 00:43:49;;;;;;;;;;;;;;;;;;5031486;28;19931;-72
2023/10/28 00:46:14;;;;;;;;;;;;;;;;;;5046647;28;19924;-72
2023/10/28 00:48:40;;;;;;;;;;;;;;;;;;5051439;28;19920;-72
2023/10/28 00:51:06;;;;;;;;;;;;;;;;;;5035480;28;19924;-71
2023/10/28 00:53:32;;;;;;;;;;;;;;;;;;5043180;28;20375;-71
2023/10/28 00:55:59;;;;;;;;;;;;;;;;;;5049752;28;19932;-72
2023/10/28 00:58:26;;;;;;;;;;;;;;;;;;5054051;28;19933;-72
2023/10/28 01:00:52;;;;;;;;;;;;;;;;;;5059889;28;19925;-72
2023/10/28 01:03:18;;;;;;;;;;;;;;;;;;5079717;28;20032;-72
2023/10/28 01:05:44;;;;;;;;;;;;;;;;;;5044517;28;20010;-71
2023/10/28 01:08:10;;;;;;;;;;;;;;;;;;5049822;28;19920;-72
2023/10/28 01:10:38;;;;;;;;;;;;;;;;;;5056371;28;19921;-72
2023/10/28 01:13:04;;;;;;;;;;;;;;;;;;5031611;28;19928;-72
2023/10/28 01:15:30;;;;;;;;;;;;;;;;;;5052529;28;20642;-72
2023/10/28 01:17:59;;;;;;;;;;;;;;;;;;5048676;28;19920;-72
2023/10/28 01:20:25;;;;;;;;;;;;;;;;;;5033440;28;20010;-72
2023/10/28 01:22:51;;;;;;;;;;;;;;;;;;5032540;28;20080;-72
2023/10/28 01:25:16;;;;;;;;;;;;;;;;;;5052953;28;20370;-73
2023/10/28 01:27:45;;;;;;;;;;;;;;;;;;5052691;28;19928;-72
2023/10/28 01:30:14;;;;;;;;;;;;;;;;;;5055390;28;19920;-73
2023/10/28 01:32:40;;;;;;;;;;;;;;;;;;5047271;28;19974;-72
2023/10/28 01:35:09;;;;;;;;;;;;;;;;;;5044683;28;19999;-73
2023/10/28 01:37:35;;;;;;;;;;;;;;;;;;5029283;28;19933;-73
2023/10/28 01:40:01;;;;;;;;;;;;;;;;;;5032934;28;20275;-72
2023/10/28 01:42:27;;;;;;;;;;;;;;;;;;5046519;28;19921;-72
2023/10/28 01:44:53;;;;;;;;;;;;;;;;;;5015758;28;19920;-73
2023/10/28 01:47:19;;;;;;;;;;;;;;;;;;5041801;28;19928;-72
2023/10/28 01:49:45;;;;;;;;;;;;;;;;;;5060228;28;19931;-74
2023/10/28 01:52:11;;;;;;;;;;;;;;;;;;5069828;28;19927;-72
2023/10/28 01:54:37;;;;;;;;;;;;;;;;;;5021140;28;19925;-72
2023/10/28 01:57:05;;;;;;;;;;;;;;;;;;5041493;28;19931;-73
2023/10/28 01:59:31;;;;;;;;;;;;;;;;;;5048814;28;19921;-73
2023/10/28 02:02:00;;;;;;;;;;;;;;;;;;5040561;28;19924;-72
2023/10/28 02:04:26;;;;;;;;;;;;;;;;;;5053223;28;19921;-72
2023/10/28 02:06:51;;;;;;;;;;;;;;;;;;5044221;28;20019;-73
2023/10/28 02:09:17;;;;;;;;;;;;;;;;;;5052491;28;20003;-73
2023/10/28 02:11:43;;;;;;;;;;;;;;;;;;5068426;28;20358;-72
2023/10/28 02:14:09;;;;;;;;;;;;;;;;;;5058144;28;19927;-73
2023/10/28 02:16:38;;;;;;;;;;;;;;;;;;5051343;28;19936;-72
2023/10/28 02:19:05;;;;;;;;;;;;;;;;;;5038893;28;19924;-73
2023/10/28 02:21:30;;;;;;;;;;;;;;;;;;5057163;28;20315;-72
2023/10/28 02:23:57;;;;;;;;;;;;;;;;;;5054537;28;19921;-72
2023/10/28 02:26:22;;;;;;;;;;;;;;;;;;5036552;28;19960;-72
2023/10/28 02:28:48;;;;;;;;;;;;;;;;;;5041900;28;20463;-73
2023/10/28 02:31:14;;;;;;;;;;;;;;;;;;5064502;28;19927;-72
2023/10/28 02:33:40;;;;;;;;;;;;;;;;;;5065791;28;19930;-72
2023/10/28 02:36:06;;;;;;;;;;;;;;;;;;5049463;28;20002;-72
2023/10/28 02:38:32;;;;;;;;;;;;;;;;;;5056523;28;20301;-72
2023/10/28 02:40:58;;;;;;;;;;;;;;;;;;5017938;28;19928;-72
2023/10/28 02:43:24;;;;;;;;;;;;;;;;;;5048318;28;19936;-72
2023/10/28 02:45:50;;;;;;;;;;;;;;;;;;5058011;28;19921;-73
2023/10/28 02:48:16;;;;;;;;;;;;;;;;;;5062468;28;19924;-72
2023/10/28 02:50:42;;;;;;;;;;;;;;;;;;5069722;28;19951;-72
2023/10/28 02:53:07;;;;;;;;;;;;;;;;;;5065156;28;19970;-72
2023/10/28 02:55:33;;;;;;;;;;;;;;;;;;5074347;28;19928;-73
2023/10/28 02:57:59;;;;;;;;;;;;;;;;;;5067504;28;19920;-72
2023/10/28 03:00:25;;;;;;;;;;;;;;;;;;5072535;28;19938;-72
2023/10/28 03:02:52;;;;;;;;;;;;;;;;;;5058019;28;19924;-72
2023/10/28 03:05:19;;;;;;;;;;;;;;;;;;5028470;28;19921;-72
2023/10/28 03:07:45;;;;;;;;;;;;;;;;;;5055043;28;19936;-72
2023/10/28 03:10:10;;;;;;;;;;;;;;;;;;5020044;28;19925;-72
2023/10/28 03:12:37;;;;;;;;;;;;;;;;;;5041261;28;20479;-72
2023/10/28 03:15:05;;;;;;;;;;;;;;;;;;5061090;28;19924;-72
2023/10/28 03:17:31;;;;;;;;;;;;;;;;;;5052343;28;19935;-72
2023/10/28 03:19:57;;;;;;;;;;;;;;;;;;5065617;28;20421;-72
2023/10/28 03:22:23;;;;;;;;;;;;;;;;;;5072725;28;19981;-72
2023/10/28 03:24:49;;;;;;;;;;;;;;;;;;5062405;28;19970;-72
2023/10/28 03:27:15;;;;;;;;;;;;;;;;;;5051488;28;19933;-72
2023/10/28 03:29:42;;;;;;;;;;;;;;;;;;5051322;28;19924;-73
2023/10/28 03:32:08;;;;;;;;;;;;;;;;;;5057502;28;19967;-73
2023/10/28 03:34:34;;;;;;;;;;;;;;;;;;5043585;28;19964;-73
2023/10/28 03:37:00;;;;;;;;;;;;;;;;;;5048149;28;20435;-72
2023/10/28 03:39:25;;;;;;;;;;;;;;;;;;5047272;28;19927;-72
2023/10/28 03:41:51;;;;;;;;;;;;;;;;;;5056991;28;20522;-73
2023/10/28 03:44:17;;;;;;;;;;;;;;;;;;5051480;28;19924;-72
2023/10/28 03:46:43;;;;;;;;;;;;;;;;;;5070841;28;19920;-73
2023/10/28 03:49:09;;;;;;;;;;;;;;;;;;5038820;28;20366;-72
2023/10/28 03:51:36;;;;;;;;;;;;;;;;;;5056576;28;19924;-72
2023/10/28 03:54:02;;;;;;;;;;;;;;;;;;5053918;28;19928;-72
2023/10/28 03:56:28;;;;;;;;;;;;;;;;;;5037761;28;19930;-72
2023/10/28 03:58:54;;;;;;;;;;;;;;;;;;5059913;28;19928;-72
2023/10/28 04:01:21;;;;;;;;;;;;;;;;;;5051972;28;19929;-73
2023/10/28 04:03:47;;;;;;;;;;;;;;;;;;5031266;28;19925;-72
2023/10/28 04:06:13;;;;;;;;;;;;;;;;;;5056399;28;20279;-72
2023/10/28 04:08:39;;;;;;;;;;;;;;;;;;5018765;28;19921;-72
2023/10/28 04:11:05;;;;;;;;;;;;;;;;;;5036421;28;20404;-72
2023/10/28 04:13:31;;;;;;;;;;;;;;;;;;5018357;28;19931;-72
2023/10/28 04:15:57;;;;;;;;;;;;;;;;;;5052186;28;19929;-72
2023/10/28 04:18:23;;;;;;;;;;;;;;;;;;5030720;28;19921;-72
2023/10/28 04:20:50;;;;;;;;;;;;;;;;;;5039696;28;19920;-72
2023/10/28 04:23:17;;;;;;;;;;;;;;;;;;5037403;28;20319;-72
2023/10/28 04:25:43;;;;;;;;;;;;;;;;;;5052815;28;19970;-72
2023/10/28 04:28:08;;;;;;;;;;;;;;;;;;5052771;28;19932;-72
2023/10/28 04:30:34;;;;;;;;;;;;;;;;;;5037931;28;19931;-72
2023/10/28 04:33:00;;;;;;;;;;;;;;;;;;5013223;28;19936;-72
2023/10/28 04:35:26;;;;;;;;;;;;;;;;;;5030252;28;19924;-72
2023/10/28 04:37:53;;;;;;;;;;;;;;;;;;5035504;28;19935;-72
2023/10/28 04:40:19;;;;;;;;;;;;;;;;;;5033992;28;19925;-72
2023/10/28 04:42:47;;;;;;;;;;;;;;;;;;5036116;28;20709;-73
2023/10/28 04:45:12;;;;;;;;;;;;;;;;;;5032373;28;19934;-72
2023/10/28 04:47:38;;;;;;;;;;;;;;;;;;5031197;28;22418;-72
2023/10/28 04:50:04;;;;;;;;;;;;;;;;;;5053197;28;19936;-72
2023/10/28 04:52:30;;;;;;;;;;;;;;;;;;5052787;28;19975;-72
2023/10/28 04:54:56;;;;;;;;;;;;;;;;;;5037670;28;19921;-72
2023/10/28 04:57:22;;;;;;;;;;;;;;;;;;5024341;28;19938;-72
2023/10/28 04:59:49;;;;;;;;;;;;;;;;;;5033018;28;19952;-72
2023/10/28 05:02:15;;;;;;;;;;;;;;;;;;5055317;28;19929;-72
2023/10/28 05:04:41;;;;;;;;;;;;;;;;;;5036043;28;20404;-72
2023/10/28 05:07:07;;;;;;;;;;;;;;;;;;5045700;28;19920;-72
2023/10/28 05:09:33;;;;;;;;;;;;;;;;;;5054298;28;19921;-72
2023/10/28 05:12:00;;;;;;;;;;;;;;;;;;5056958;28;19925;-72
2023/10/28 05:14:26;;;;;;;;;;;;;;;;;;5025061;28;19949;-72
2023/10/28 05:16:52;;;;;;;;;;;;;;;;;;5023954;28;19975;-72
2023/10/28 05:19:20;;;;;;;;;;;;;;;;;;5062360;28;19921;-72
2023/10/28 05:21:46;;;;;;;;;;;;;;;;;;5027438;28;19924;-72
2023/10/28 05:24:12;;;;;;;;;;;;;;;;;;5036692;28;19921;-72
2023/10/28 05:26:38;;;;;;;;;;;;;;;;;;5047374;28;19925;-72
2023/10/28 05:29:04;;;;;;;;;;;;;;;;;;5044844;28;20405;-72
2023/10/28 05:31:30;;;;;;;;;;;;;;;;;;5050888;28;19951;-72
2023/10/28 05:33:56;;;;;;;;;;;;;;;;;;5051507;28;19920;-72
2023/10/28 05:36:22;;;;;;;;;;;;;;;;;;5046919;28;20478;-72
2023/10/28 05:38:48;;;;;;;;;;;;;;;;;;5026114;28;19951;-72
2023/10/28 05:41:14;;;;;;;;;;;;;;;;;;5040802;28;20310;-72
2023/10/28 05:43:40;;;;;;;;;;;;;;;;;;5041489;28;19921;-72
2023/10/28 05:46:05;;;;;;;;;;;;;;;;;;5051707;28;19925;-72
2023/10/28 05:48:32;;;;;;;;;;;;;;;;;;5059170;28;19964;-72
2023/10/28 05:50:58;;;;;;;;;;;;;;;;;;5041452;28;20354;-72
2023/10/28 05:53:24;;;;;;;;;;;;;;;;;;5052721;28;19974;-72
2023/10/28 05:55:50;;;;;;;;;;;;;;;;;;5033074;28;19929;-72
2023/10/28 05:58:16;;;;;;;;;;;;;;;;;;5038623;28;20413;-72
2023/10/28 06:00:42;;;;;;;;;;;;;;;;;;5054113;28;20410;-72
2023/10/28 06:03:08;;;;;;;;;;;;;;;;;;5032674;28;20019;-72
2023/10/28 06:05:34;;;;;;;;;;;;;;;;;;5021213;28;19986;-72
2023/10/28 06:08:00;;;;;;;;;;;;;;;;;;5047239;28;19924;-72
2023/10/28 06:10:26;;;;;;;;;;;;;;;;;;5046172;28;19920;-72
2023/10/28 06:12:52;;;;;;;;;;;;;;;;;;5055358;28;19999;-72
2023/10/28 06:15:18;;;;;;;;;;;;;;;;;;5052262;28;20059;-72
2023/10/28 06:17:45;;;;;;;;;;;;;;;;;;5034904;28;20362;-72
2023/10/28 06:20:11;;;;;;;;;;;;;;;;;;5052600;28;20559;-72
2023/10/28 06:22:37;;;;;;;;;;;;;;;;;;5031010;28;19940;-73
2023/10/28 06:25:04;;;;;;;;;;;;;;;;;;5055331;28;19928;-72
2023/10/28 06:27:30;;;;;;;;;;;;;;;;;;5052854;28;19924;-72
2023/10/28 06:29:56;;;;;;;;;;;;;;;;;;5041158;28;20382;-72
2023/10/28 06:32:22;;;;;;;;;;;;;;;;;;5055331;28;19924;-72
2023/10/28 06:34:48;;;;;;;;;;;;;;;;;;5030218;28;20565;-72
2023/10/28 06:37:13;;;;;;;;;;;;;;;;;;5031542;28;19924;-72
2023/10/28 06:39:39;;;;;;;;;;;;;;;;;;5087319;22;19960;-61
2023/10/28 06:42:05;;;;;;;;;;;;;;;;;;5056160;28;20805;-61
2023/10/28 06:44:32;;;;;;;;;;;;;;;;;;5046611;28;19925;-61
2023/10/28 06:46:58;;;;;;;;;;;;;;;;;;5025831;28;19927;-61
2023/10/28 06:49:24;;;;;;;;;;;;;;;;;;5047543;28;19925;-61
2023/10/28 06:51:50;;;;;;;;;;;;;;;;;;5052638;28;19934;-60
2023/10/28 06:54:16;;;;;;;;;;;;;;;;;;5041569;28;19928;-60
2023/10/28 06:56:42;;;;;;;;;;;;;;;;;;5053517;28;19978;-61
2023/10/28 06:59:08;;;;;;;;;;;;;;;;;;5045682;28;19929;-60
2023/10/28 07:01:34;;;;;;;;;;;;;;;;;;5057771;28;19924;-60
2023/10/28 07:04:01;;;;;;;;;;;;;;;;;;5032003;28;19928;-60
2023/10/28 07:06:27;;;;;;;;;;;;;;;;;;5050320;28;19925;-60
2023/10/28 07:08:53;;;;;;;;;;;;;;;;;;5064599;28;20339;-60
2023/10/28 07:11:19;;;;;;;;;;;;;;;;;;5048732;28;19952;-60
2023/10/28 07:13:45;;;;;;;;;;;;;;;;;;5046585;28;19924;-59
2023/10/28 07:16:11;;;;;;;;;;;;;;;;;;5047226;28;19961;-60
2023/10/28 07:18:37;;;;;;;;;;;;;;;;;;5049503;28;19948;-60
2023/10/28 07:21:03;;;;;;;;;;;;;;;;;;5028430;28;19964;-59
2023/10/28 07:23:30;;;;;;;;;;;;;;;;;;5051618;28;19979;-60
2023/10/28 07:25:56;;;;;;;;;;;;;;;;;;5054418;28;19941;-60
2023/10/28 07:28:22;;;;;;;;;;;;;;;;;;5033309;28;19924;-60
2023/10/28 07:30:51;;;;;;;;;;;;;;;;;;5046813;28;19948;-60
2023/10/28 07:33:17;;;;;;;;;;;;;;;;;;5047849;28;19936;-60
2023/10/28 07:35:43;;;;;;;;;;;;;;;;;;5045796;28;20665;-60
2023/10/28 07:38:09;;;;;;;;;;;;;;;;;;5050499;28;19928;-60
2023/10/28 07:40:35;;;;;;;;;;;;;;;;;;5053405;28;19936;-60
2023/10/28 07:43:01;;;;;;;;;;;;;;;;;;5031891;28;20016;-60
2023/10/28 07:45:27;;;;;;;;;;;;;;;;;;5046915;28;20314;-60
2023/10/28 07:47:53;;;;;;;;;;;;;;;;;;5030196;28;19939;-60
2023/10/28 07:50:19;;;;;;;;;;;;;;;;;;5043560;28;20366;-60
2023/10/28 07:52:45;;;;;;;;;;;;;;;;;;5048634;28;19925;-60
2023/10/28 07:55:11;;;;;;;;;;;;;;;;;;5031067;28;19931;-60
2023/10/28 07:57:37;;;;;;;;;;;;;;;;;;5049455;28;19948;-60
2023/10/28 08:00:05;;;;;;;;;;;;;;;;;;5052601;28;19920;-60
2023/10/28 08:02:31;;;;;;;;;;;;;;;;;;5051355;28;19921;-60
2023/10/28 08:05:00;;;;;;;;;;;;;;;;;;5048743;28;19927;-60
2023/10/28 08:07:26;;;;;;;;;;;;;;;;;;5043620;28;19985;-60
2023/10/28 08:09:52;;;;;;;;;;;;;;;;;;5046740;28;19921;-60
2023/10/28 08:12:18;;;;;;;;;;;;;;;;;;5054584;28;19927;-59
2023/10/28 08:14:46;;;;;;;;;;;;;;;;;;5054703;28;19928;-59
2023/10/28 08:17:12;;;;;;;;;;;;;;;;;;5051810;28;19935;-59
2023/10/28 08:19:38;;;;;;;;;;;;;;;;;;5050258;28;19921;-59
2023/10/28 08:22:04;;;;;;;;;;;;;;;;;;5049432;28;19952;-59
2023/10/28 08:24:30;;;;;;;;;;;;;;;;;;5025404;28;19932;-60
2023/10/28 08:26:56;;;;;;;;;;;;;;;;;;5049134;28;19931;-60
2023/10/28 08:29:23;;;;;;;;;;;;;;;;;;5056878;28;19927;-60
2023/10/28 08:31:49;;;;;;;;;;;;;;;;;;5067628;28;19920;-60
2023/10/28 08:34:15;;;;;;;;;;;;;;;;;;5053131;28;19978;-60
2023/10/28 08:36:41;;;;;;;;;;;;;;;;;;5032771;28;20398;-61
2023/10/28 08:39:07;;;;;;;;;;;;;;;;;;5049754;28;20285;-60
2023/10/28 08:41:33;;;;;;;;;;;;;;;;;;5041974;28;19929;-60
2023/10/28 08:44:00;;;;;;;;;;;;;;;;;;5046233;28;19943;-60
2023/10/28 08:46:26;;;;;;;;;;;;;;;;;;5040231;28;19924;-60
2023/10/28 08:48:52;;;;;;;;;;;;;;;;;;5048217;28;19925;-60
2023/10/28 08:51:17;;;;;;;;;;;;;;;;;;5049858;28;19921;-60
2023/10/28 08:53:44;;;;;;;;;;;;;;;;;;5049024;28;20316;-60
2023/10/28 08:56:10;;;;;;;;;;;;;;;;;;5047148;28;20015;-60
2023/10/28 08:58:38;;;;;;;;;;;;;;;;;;5049638;28;20011;-60
2023/10/28 09:01:04;;;;;;;;;;;;;;;;;;5049620;28;19925;-60
2023/10/28 09:03:30;;;;;;;;;;;;;;;;;;5015366;28;19924;-61
2023/10/28 09:05:59;;;;;;;;;;;;;;;;;;5055998;28;20011;-60
2023/10/28 09:08:25;;;;;;;;;;;;;;;;;;5047072;28;19925;-61
2023/10/28 09:10:50;;;;;;;;;;;;;;;;;;5045201;28;19929;-60
2023/10/28 09:13:16;;;;;;;;;;;;;;;;;;5050171;28;19928;-60
2023/10/28 09:15:42;;;;;;;;;;;;;;;;;;5029562;28;19924;-60
2023/10/28 09:18:08;;;;;;;;;;;;;;;;;;5050117;28;19928;-59
2023/10/28 09:20:37;;;;;;;;;;;;;;;;;;5056251;28;19928;-59
2023/10/28 09:23:03;;;;;;;;;;;;;;;;;;5058087;28;20373;-60
2023/10/28 09:25:29;;;;;;;;;;;;;;;;;;5052275;28;19978;-60
2023/10/28 09:27:55;;;;;;;;;;;;;;;;;;5044242;28;19924;-60
2023/10/28 09:30:21;;;;;;;;;;;;;;;;;;5034429;28;19925;-60
2023/10/28 09:32:47;;;;;;;;;;;;;;;;;;5033922;28;20360;-60
2023/10/28 09:35:13;;;;;;;;;;;;;;;;;;5021518;28;19921;-60
2023/10/28 09:37:39;;;;;;;;;;;;;;;;;;5069214;28;19998;-60
2023/10/28 09:40:05;;;;;;;;;;;;;;;;;;5047805;28;19951;-61
2023/10/28 09:42:31;;;;;;;;;;;;;;;;;;5023983;28;19924;-60
2023/10/28 09:44:58;;;;;;;;;;;;;;;;;;5030355;28;20008;-60
2023/10/28 09:47:24;;;;;;;;;;;;;;;;;;5052249;28;20011;-60
2023/10/28 09:49:50;;;;;;;;;;;;;;;;;;5048325;28;19927;-61
2023/10/28 09:52:16;;;;;;;;;;;;;;;;;;5053493;28;20366;-60
2023/10/28 09:54:42;;;;;;;;;;;;;;;;;;5055602;28;19975;-60
2023/10/28 09:57:10;;;;;;;;;;;;;;;;;;5027749;28;19925;-61
2023/10/28 09:59:36;;;;;;;;;;;;;;;;;;5046605;28;20339;-60
2023/10/28 10:02:02;;;;;;;;;;;;;;;;;;5037633;28;19929;-60
2023/10/28 10:04:28;;;;;;;;;;;;;;;;;;5049421;28;19931;-60
2023/10/28 10:06:54;;;;;;;;;;;;;;;;;;5049932;28;19921;-62
2023/10/28 10:09:20;;;;;;;;;;;;;;;;;;5053744;28;20362;-60
2023/10/28 10:11:46;;;;;;;;;;;;;;;;;;5045577;28;19932;-60
2023/10/28 10:14:12;;;;;;;;;;;;;;;;;;5040863;28;19920;-60
2023/10/28 10:16:38;;;;;;;;;;;;;;;;;;5049012;28;19925;-60
2023/10/28 10:19:04;;;;;;;;;;;;;;;;;;5046910;28;20285;-61
2023/10/28 10:21:30;;;;;;;;;;;;;;;;;;5050673;28;19930;-61
2023/10/28 10:23:56;;;;;;;;;;;;;;;;;;5047346;28;19928;-60
2023/10/28 10:26:22;;;;;;;;;;;;;;;;;;5038428;28;19921;-60
2023/10/28 10:28:48;;;;;;;;;;;;;;;;;;5051693;28;19924;-61
2023/10/28 10:31:14;;;;;;;;;;;;;;;;;;5055058;28;19929;-60
2023/10/28 10:33:40;;;;;;;;;;;;;;;;;;5033416;28;19936;-60
2023/10/28 10:36:06;;;;;;;;;;;;;;;;;;5057854;28;19928;-60
2023/10/28 10:38:32;;;;;;;;;;;;;;;;;;5058119;28;19971;-60
2023/10/28 10:40:58;;;;;;;;;;;;;;;;;;5060422;28;20377;-60
2023/10/28 10:43:24;;;;;;;;;;;;;;;;;;5050750;28;19925;-59
2023/10/28 10:45:50;;;;;;;;;;;;;;;;;;5054942;28;20286;-60
2023/10/28 10:48:17;;;;;;;;;;;;;;;;;;5053846;28;19921;-60
2023/10/28 10:50:42;;;;;;;;;;;;;;;;;;5057419;28;20381;-60
2023/10/28 10:53:08;;;;;;;;;;;;;;;;;;5056677;28;19921;-60
2023/10/28 10:55:34;;;;;;;;;;;;;;;;;;5055732;28;19962;-60
2023/10/28 10:58:00;;;;;;;;;;;;;;;;;;5045907;28;20259;-59
2023/10/28 11:00:26;;;;;;;;;;;;;;;;;;5020976;28;19966;-59
2023/10/28 11:02:54;;;;;;;;;;;;;;;;;;5057515;28;20321;-60
2023/10/28 11:05:20;;;;;;;;;;;;;;;;;;5055348;28;20028;-60
2023/10/28 11:07:46;;;;;;;;;;;;;;;;;;5049549;28;20019;-60
2023/10/28 11:10:12;;;;;;;;;;;;;;;;;;5048800;28;20437;-60
2023/10/28 11:12:38;;;;;;;;;;;;;;;;;;5052996;28;19954;-60
2023/10/28 11:15:04;;;;;;;;;;;;;;;;;;5046023;28;19921;-60
2023/10/28 11:17:30;;;;;;;;;;;;;;;;;;5047657;28;19947;-60
2023/10/28 11:19:56;;;;;;;;;;;;;;;;;;5050594;28;19959;-60
2023/10/28 11:22:23;;;;;;;;;;;;;;;;;;5034183;28;19998;-61
2023/10/28 11:24:49;;;;;;;;;;;;;;;;;;5053283;28;20059;-60
2023/10/28 11:27:15;;;;;;;;;;;;;;;;;;5050243;28;20123;-60
2023/10/28 11:29:41;;;;;;;;;;;;;;;;;;5048134;28;19928;-60
2023/10/28 11:32:07;;;;;;;;;;;;;;;;;;5057771;28;19966;-60
2023/10/28 11:34:33;;;;;;;;;;;;;;;;;;5050323;28;20008;-61
2023/10/28 11:36:59;;;;;;;;;;;;;;;;;;5052891;28;20011;-61
2023/10/28 11:39:24;;;;;;;;;;;;;;;;;;5052751;28;19935;-61
2023/10/28 11:41:50;;;;;;;;;;;;;;;;;;5048125;28;20016;-61
2023/10/28 11:44:16;;;;;;;;;;;;;;;;;;5055292;28;20361;-61
2023/10/28 11:46:42;;;;;;;;;;;;;;;;;;5027840;28;19920;-61
2023/10/28 11:49:08;;;;;;;;;;;;;;;;;;5050905;28;20023;-61
2023/10/28 11:51:34;;;;;;;;;;;;;;;;;;5050603;28;19999;-61
2023/10/28 11:54:03;;;;;;;;;;;;;;;;;;5045768;28;20515;-61
2023/10/28 11:56:31;;;;;;;;;;;;;;;;;;5056811;28;19929;-61
2023/10/28 11:58:57;;;;;;;;;;;;;;;;;;5056502;28;19971;-60
2023/10/28 12:01:23;;;;;;;;;;;;;;;;;;5025021;28;19953;-60
2023/10/28 12:03:49;;;;;;;;;;;;;;;;;;5053182;28;19944;-59
2023/10/28 12:06:15;;;;;;;;;;;;;;;;;;5048277;28;19971;-59
2023/10/28 12:08:41;;;;;;;;;;;;;;;;;;5048575;28;19921;-60
2023/10/28 12:11:07;;;;;;;;;;;;;;;;;;5048528;28;19924;-60
2023/10/28 12:13:36;;;;;;;;;;;;;;;;;;5042517;28;20515;-60
2023/10/28 12:16:05;;;;;;;;;;;;;;;;;;5054669;28;20409;-60
2023/10/28 12:18:31;;;;;;;;;;;;;;;;;;5039180;28;19920;-60
2023/10/28 12:20:56;;;;;;;;;;;;;;;;;;5047983;28;19925;-60
2023/10/28 12:23:22;;;;;;;;;;;;;;;;;;5045281;28;20320;-60
2023/10/28 12:25:48;;;;;;;;;;;;;;;;;;5054071;28;19921;-60
2023/10/28 12:28:14;;;;;;;;;;;;;;;;;;5056183;28;19927;-60
2023/10/28 12:30:40;;;;;;;;;;;;;;;;;;5032559;28;19925;-59
2023/10/28 12:33:09;;;;;;;;;;;;;;;;;;5056073;28;19966;-60
2023/10/28 12:35:35;;;;;;;;;;;;;;;;;;5046800;28;19921;-60
2023/10/28 12:38:01;;;;;;;;;;;;;;;;;;5048657;28;19939;-60
2023/10/28 12:40:26;;;;;;;;;;;;;;;;;;5010560;28;20475;-60
2023/10/28 12:42:52;;;;;;;;;;;;;;;;;;5030395;28;19932;-60
2023/10/28 12:45:18;;;;;;;;;;;;;;;;;;5032371;28;20530;-60
2023/10/28 12:47:44;;;;;;;;;;;;;;;;;;5034099;28;20374;-60
2023/10/28 12:50:14;;;;;;;;;;;;;;;;;;5037467;28;19925;-62
2023/10/28 12:52:41;;;;;;;;;;;;;;;;;;5026914;28;19925;-60
2023/10/28 12:55:07;;;;;;;;;;;;;;;;;;5024235;28;19980;-60
2023/10/28 12:57:32;;;;;;;;;;;;;;;;;;5027710;28;20494;-60
2023/10/28 12:59:58;;;;;;;;;;;;;;;;;;5025721;28;19921;-60
2023/10/28 13:02:25;;;;;;;;;;;;;;;;;;5019568;28;19925;-60
2023/10/28 13:04:51;;;;;;;;;;;;;;;;;;5026831;28;20015;-60
2023/10/28 13:07:17;;;;;;;;;;;;;;;;;;5036462;28;20382;-60
2023/10/28 13:09:43;;;;;;;;;;;;;;;;;;5023591;28;19928;-59
2023/10/28 13:12:10;;;;;;;;;;;;;;;;;;5024054;28;19928;-60
2023/10/28 13:14:36;;;;;;;;;;;;;;;;;;5053295;28;19925;-60
2023/10/28 13:17:02;;;;;;;;;;;;;;;;;;5028788;28;20036;-60
2023/10/28 13:19:29;;;;;;;;;;;;;;;;;;5028855;28;20398;-61
2023/10/28 13:21:54;;;;;;;;;;;;;;;;;;5035176;28;20008;-60
2023/10/28 13:24:20;;;;;;;;;;;;;;;;;;5025692;28;19928;-60
2023/10/28 13:26:47;;;;;;;;;;;;;;;;;;5031701;28;19932;-60
2023/10/28 13:29:13;;;;;;;;;;;;;;;;;;5032219;28;19952;-60
2023/10/28 13:31:39;;;;;;;;;;;;;;;;;;5027472;28;19957;-60
2023/10/28 13:34:05;;;;;;;;;;;;;;;;;;5033852;28;19964;-60
2023/10/28 13:36:31;;;;;;;;;;;;;;;;;;5035947;28;19960;-60
2023/10/28 13:38:57;;;;;;;;;;;;;;;;;;5035080;28;20395;-60
2023/10/28 13:41:24;;;;;;;;;;;;;;;;;;5056205;28;20613;-60
2023/10/28 13:43:50;;;;;;;;;;;;;;;;;;5053803;28;19920;-59
2023/10/28 13:46:16;;;;;;;;;;;;;;;;;;5046521;28;20677;-59
2023/10/28 13:48:42;;;;;;;;;;;;;;;;;;5035366;28;19979;-59
2023/10/28 13:51:08;;;;;;;;;;;;;;;;;;5055584;28;20012;-59
2023/10/28 13:53:33;;;;;;;;;;;;;;;;;;5066170;28;20309;-60
2023/10/28 13:55:59;;;;;;;;;;;;;;;;;;5035938;28;19924;-60
2023/10/28 13:58:25;;;;;;;;;;;;;;;;;;5064233;28;19936;-60
2023/10/28 14:00:52;;;;;;;;;;;;;;;;;;5065205;28;20035;-60
2023/10/28 14:03:20;;;;;;;;;;;;;;;;;;5065845;28;20682;-60
2023/10/28 14:05:46;;;;;;;;;;;;;;;;;;5065728;28;19974;-60
2023/10/28 14:08:12;;;;;;;;;;;;;;;;;;5070330;28;19983;-60
2023/10/28 14:10:38;;;;;;;;;;;;;;;;;;5047995;28;20290;-60
2023/10/28 14:13:04;;;;;;;;;;;;;;;;;;5060898;28;19920;-60
2023/10/28 14:15:31;;;;;;;;;;;;;;;;;;5075004;28;19978;-60
2023/10/28 14:17:56;;;;;;;;;;;;;;;;;;5063467;28;19931;-60
2023/10/28 14:20:22;;;;;;;;;;;;;;;;;;5057172;28;19920;-60
2023/10/28 14:22:48;;;;;;;;;;;;;;;;;;5037644;28;19921;-60
2023/10/28 14:25:14;;;;;;;;;;;;;;;;;;5062510;28;19935;-60
2023/10/28 14:27:42;;;;;;;;;;;;;;;;;;5070655;28;20007;-60
2023/10/28 14:30:08;;;;;;;;;;;;;;;;;;5068103;28;19974;-59
2023/10/28 14:32:37;;;;;;;;;;;;;;;;;;5058093;28;20531;-59
2023/10/28 14:35:03;;;;;;;;;;;;;;;;;;5061517;28;19925;-59
2023/10/28 14:37:29;;;;;;;;;;;;;;;;;;5074583;28;19952;-59
2023/10/28 14:39:55;;;;;;;;;;;;;;;;;;5067993;28;19924;-59
2023/10/28 14:42:22;;;;;;;;;;;;;;;;;;5074254;28;19955;-59
2023/10/28 14:44:49;;;;;;;;;;;;;;;;;;5063913;28;19936;-59
2023/10/28 14:47:15;;;;;;;;;;;;;;;;;;5066902;28;19928;-59
2023/10/28 14:49:43;;;;;;;;;;;;;;;;;;5073222;28;19927;-59
2023/10/28 14:52:09;;;;;;;;;;;;;;;;;;5064523;28;20333;-60
2023/10/28 14:54:35;;;;;;;;;;;;;;;;;;5057224;28;19960;-60
2023/10/28 14:57:01;;;;;;;;;;;;;;;;;;5067345;28;20012;-60
2023/10/28 14:59:27;;;;;;;;;;;;;;;;;;5033767;28;19958;-60
2023/10/28 15:01:53;;;;;;;;;;;;;;;;;;5061585;28;19925;-60
2023/10/28 15:04:19;;;;;;;;;;;;;;;;;;5025113;28;19920;-60
2023/10/28 15:06:47;;;;;;;;;;;;;;;;;;5069568;28;19920;-60
2023/10/28 15:09:13;;;;;;;;;;;;;;;;;;5073876;28;19921;-60
2023/10/28 15:11:39;;;;;;;;;;;;;;;;;;5073643;28;20393;-59
2023/10/28 15:14:05;;;;;;;;;;;;;;;;;;5048856;28;19921;-59
2023/10/28 15:16:31;;;;;;;;;;;;;;;;;;5055773;28;19928;-59
2023/10/28 15:18:58;;;;;;;;;;;;;;;;;;5038424;28;19925;-59
2023/10/28 15:21:24;;;;;;;;;;;;;;;;;;5073457;28;19920;-60
2023/10/28 15:23:52;;;;;;;;;;;;;;;;;;5070211;28;19921;-59
2023/10/28 15:26:18;;;;;;;;;;;;;;;;;;5050470;28;19971;-59
2023/10/28 15:28:44;;;;;;;;;;;;;;;;;;5064105;28;20542;-59
2023/10/28 15:31:10;;;;;;;;;;;;;;;;;;5064892;28;19925;-59
2023/10/28 15:33:36;;;;;;;;;;;;;;;;;;5065430;28;19928;-59
2023/10/28 15:36:02;;;;;;;;;;;;;;;;;;5067103;28;20015;-59
2023/10/28 15:38:28;;;;;;;;;;;;;;;;;;5073605;28;20344;-60
2023/10/28 15:40:54;;;;;;;;;;;;;;;;;;5071005;28;19974;-60
2023/10/28 15:43:19;;;;;;;;;;;;;;;;;;5073350;28;19970;-60
2023/10/28 15:45:45;;;;;;;;;;;;;;;;;;5070820;28;19924;-60
2023/10/28 15:48:11;;;;;;;;;;;;;;;;;;5056253;28;20417;-60
2023/10/28 15:50:37;;;;;;;;;;;;;;;;;;5051831;28;19924;-60
2023/10/28 15:53:03;;;;;;;;;;;;;;;;;;5054392;28;19960;-60
2023/10/28 15:55:29;;;;;;;;;;;;;;;;;;5050888;28;19931;-60
2023/10/28 15:57:55;;;;;;;;;;;;;;;;;;5054329;28;19928;-59
2023/10/28 16:00:21;;;;;;;;;;;;;;;;;;5052791;28;19989;-60
2023/10/28 16:02:47;;;;;;;;;;;;;;;;;;5048683;28;19925;-60
2023/10/28 16:05:13;;;;;;;;;;;;;;;;;;5049332;28;20396;-60
2023/10/28 16:07:38;;;;;;;;;;;;;;;;;;5053810;28;19928;-60
2023/10/28 16:10:05;;;;;;;;;;;;;;;;;;5054495;28;20052;-60
2023/10/28 16:12:31;;;;;;;;;;;;;;;;;;5053218;28;19927;-60
2023/10/28 16:14:56;;;;;;;;;;;;;;;;;;5054042;28;20285;-60
2023/10/28 16:17:23;;;;;;;;;;;;;;;;;;5053412;28;19929;-60
2023/10/28 16:19:49;;;;;;;;;;;;;;;;;;5051994;28;19921;-60
2023/10/28 16:22:15;;;;;;;;;;;;;;;;;;5051583;28;19921;-60
2023/10/28 16:24:40;;;;;;;;;;;;;;;;;;5053222;28;20424;-60
2023/10/28 16:27:06;;;;;;;;;;;;;;;;;;5051455;28;19924;-60
2023/10/28 16:29:32;;;;;;;;;;;;;;;;;;5016647;28;19921;-60
2023/10/28 16:31:58;;;;;;;;;;;;;;;;;;5031646;28;19935;-60
2023/10/28 16:34:24;;;;;;;;;;;;;;;;;;5012723;28;19964;-60
2023/10/28 16:36:50;;;;;;;;;;;;;;;;;;5065592;28;19990;-60
2023/10/28 16:39:16;;;;;;;;;;;;;;;;;;5048899;28;19921;-60